sensor_id;sensor_type;location;lat;lon;timestamp;pressure;altitude;pressure_sealevel;temperature;humidity
76311;BME280;65120;59.304;18.294;2023-04-25T00:01:45;100276.03;;;4.48;73.22
76311;BME280;65120;59.304;18.294;2023-04-25T00:04:12;100266.56;;;4.47;72.74
76311;BME280;65120;59.304;18.294;2023-04-25T00:06:39;100261.38;;;4.48;73.47
76311;BME280;65120;59.304;18.294;2023-04-25T00:09:06;100263.09;;;4.48;73.31
76311;BME280;65120;59.304;18.294;2023-04-25T00:11:35;100257.06;;;4.46;73.08
76311;BME280;65120;59.304;18.294;2023-04-25T00:14:03;100251.06;;;4.47;73.22
76311;BME280;65120;59.304;18.294;2023-04-25T00:16:31;100248.47;;;4.45;73.36
76311;BME280;65120;59.304;18.294;2023-04-25T00:19:00;100254.47;;;4.46;73.34
76311;BME280;65120;59.304;18.294;2023-04-25T00:21:27;100248.47;;;4.47;73.15
76311;BME280;65120;59.304;18.294;2023-04-25T00:23:55;100245.00;;;4.46;73.32
76311;BME280;65120;59.304;18.294;2023-04-25T00:26:21;100242.44;;;4.45;73.23
76311;BME280;65120;59.304;18.294;2023-04-25T00:28:48;100242.44;;;4.42;73.04
76311;BME280;65120;59.304;18.294;2023-04-25T00:31:15;100242.44;;;4.42;72.93
76311;BME280;65120;59.304;18.294;2023-04-25T00:33:43;100220.00;;;4.41;73.11
76311;BME280;65120;59.304;18.294;2023-04-25T00:36:10;100210.53;;;4.40;73.38
76311;BME280;65120;59.304;18.294;2023-04-25T00:38:37;100209.66;;;4.38;73.42
76311;BME280;65120;59.304;18.294;2023-04-25T00:41:05;100225.19;;;4.39;73.52
76311;BME280;65120;59.304;18.294;2023-04-25T00:43:33;100226.06;;;4.40;73.55
76311;BME280;65120;59.304;18.294;2023-04-25T00:46:00;100232.09;;;4.42;73.77
76311;BME280;65120;59.304;18.294;2023-04-25T00:48:27;100222.59;;;4.41;73.69
76311;BME280;65120;59.304;18.294;2023-04-25T00:50:58;100219.16;;;4.42;73.45
76311;BME280;65120;59.304;18.294;2023-04-25T00:53:27;100221.72;;;4.43;73.54
76311;BME280;65120;59.304;18.294;2023-04-25T00:55:54;100223.47;;;4.44;73.58
76311;BME280;65120;59.304;18.294;2023-04-25T00:58:22;100232.06;;;4.46;73.33
76311;BME280;65120;59.304;18.294;2023-04-25T01:00:50;100213.97;;;4.45;73.64
76311;BME280;65120;59.304;18.294;2023-04-25T01:03:19;100217.44;;;4.47;73.52
76311;BME280;65120;59.304;18.294;2023-04-25T01:05:46;100229.50;;;4.48;73.61
76311;BME280;65120;59.304;18.294;2023-04-25T01:08:15;100227.75;;;4.50;73.54
76311;BME280;65120;59.304;18.294;2023-04-25T01:10:41;100224.31;;;4.51;73.63
76311;BME280;65120;59.304;18.294;2023-04-25T01:13:09;100196.72;;;4.51;73.50
76311;BME280;65120;59.304;18.294;2023-04-25T01:15:35;100175.16;;;4.51;74.14
76311;BME280;65120;59.304;18.294;2023-04-25T01:18:03;100169.13;;;4.49;73.48
76311;BME280;65120;59.304;18.294;2023-04-25T01:20:32;100191.53;;;4.48;73.61
76311;BME280;65120;59.304;18.294;2023-04-25T01:23:01;100195.88;;;4.48;73.76
76311;BME280;65120;59.304;18.294;2023-04-25T01:25:29;100170.88;;;4.42;73.77
76311;BME280;65120;59.304;18.294;2023-04-25T01:27:57;100161.38;;;4.43;73.42
76311;BME280;65120;59.304;18.294;2023-04-25T01:30:25;100171.72;;;4.46;73.74
76311;BME280;65120;59.304;18.294;2023-04-25T01:32:53;100172.59;;;4.48;74.02
76311;BME280;65120;59.304;18.294;2023-04-25T01:35:22;100175.19;;;4.48;73.65
76311;BME280;65120;59.304;18.294;2023-04-25T01:37:49;100171.72;;;4.49;73.52
76311;BME280;65120;59.304;18.294;2023-04-25T01:40:18;100174.31;;;4.50;73.98
76311;BME280;65120;59.304;18.294;2023-04-25T01:42:46;100160.53;;;4.50;73.69
76311;BME280;65120;59.304;18.294;2023-04-25T01:45:13;100170.88;;;4.50;73.86
76311;BME280;65120;59.304;18.294;2023-04-25T01:47:40;100170.84;;;4.48;73.40
76311;BME280;65120;59.304;18.294;2023-04-25T01:50:09;100163.09;;;4.48;73.51
76311;BME280;65120;59.304;18.294;2023-04-25T01:52:37;100164.84;;;4.40;73.35
76311;BME280;65120;59.304;18.294;2023-04-25T01:55:05;100188.97;;;4.50;73.34
76311;BME280;65120;59.304;18.294;2023-04-25T01:57:33;100195.84;;;4.51;73.89
76311;BME280;65120;59.304;18.294;2023-04-25T02:00:04;100201.88;;;4.53;73.93
76311;BME280;65120;59.304;18.294;2023-04-25T02:02:32;100195.88;;;4.53;73.26
76311;BME280;65120;59.304;18.294;2023-04-25T02:04:59;100182.91;;;4.54;73.71
76311;BME280;65120;59.304;18.294;2023-04-25T02:07:26;100174.28;;;4.55;73.72
76311;BME280;65120;59.304;18.294;2023-04-25T02:09:53;100162.22;;;4.54;73.29
76311;BME280;65120;59.304;18.294;2023-04-25T02:12:20;100176.88;;;4.54;74.08
76311;BME280;65120;59.304;18.294;2023-04-25T02:14:48;100169.13;;;4.50;73.80
76311;BME280;65120;59.304;18.294;2023-04-25T02:17:15;100174.31;;;4.49;73.37
76311;BME280;65120;59.304;18.294;2023-04-25T02:19:43;100164.81;;;4.48;73.17
76311;BME280;65120;59.304;18.294;2023-04-25T02:22:10;100138.97;;;4.45;73.53
76311;BME280;65120;59.304;18.294;2023-04-25T02:24:37;100129.47;;;4.44;73.28
76311;BME280;65120;59.304;18.294;2023-04-25T02:27:04;100126.03;;;4.43;73.84
76311;BME280;65120;59.304;18.294;2023-04-25T02:29:31;100129.50;;;4.42;73.36
76311;BME280;65120;59.304;18.294;2023-04-25T02:31:59;100114.00;;;4.42;73.54
76311;BME280;65120;59.304;18.294;2023-04-25T02:34:26;100115.72;;;4.42;73.73
76311;BME280;65120;59.304;18.294;2023-04-25T02:36:53;100105.38;;;4.40;73.38
76311;BME280;65120;59.304;18.294;2023-04-25T02:39:20;100095.06;;;4.39;73.51
76311;BME280;65120;59.304;18.294;2023-04-25T02:41:47;100092.47;;;4.39;73.62
76311;BME280;65120;59.304;18.294;2023-04-25T02:44:14;100089.88;;;4.39;73.79
76311;BME280;65120;59.304;18.294;2023-04-25T02:46:41;100083.81;;;4.38;73.88
76311;BME280;65120;59.304;18.294;2023-04-25T02:49:09;100094.19;;;4.37;73.63
76311;BME280;65120;59.304;18.294;2023-04-25T02:51:36;100095.06;;;4.36;74.21
76311;BME280;65120;59.304;18.294;2023-04-25T02:54:03;100095.06;;;4.36;74.00
76311;BME280;65120;59.304;18.294;2023-04-25T02:56:30;100091.59;;;4.35;73.75
76311;BME280;65120;59.304;18.294;2023-04-25T02:58:57;100086.44;;;4.34;74.27
76311;BME280;65120;59.304;18.294;2023-04-25T03:01:24;100085.56;;;4.35;74.00
76311;BME280;65120;59.304;18.294;2023-04-25T03:03:50;100064.06;;;4.33;74.05
76311;BME280;65120;59.304;18.294;2023-04-25T03:06:19;100070.06;;;4.35;73.91
76311;BME280;65120;59.304;18.294;2023-04-25T03:08:45;100064.91;;;4.33;73.65
76311;BME280;65120;59.304;18.294;2023-04-25T03:11:12;100058.88;;;4.33;73.94
76311;BME280;65120;59.304;18.294;2023-04-25T03:13:39;100060.59;;;4.32;74.17
76311;BME280;65120;59.304;18.294;2023-04-25T03:16:06;100053.72;;;4.33;73.99
76311;BME280;65120;59.304;18.294;2023-04-25T03:18:33;100049.38;;;4.32;73.67
76311;BME280;65120;59.304;18.294;2023-04-25T03:21:00;100047.66;;;4.29;73.64
76311;BME280;65120;59.304;18.294;2023-04-25T03:23:28;100028.72;;;4.28;73.57
76311;BME280;65120;59.304;18.294;2023-04-25T03:25:55;100031.31;;;4.27;73.98
76311;BME280;65120;59.304;18.294;2023-04-25T03:28:22;100017.53;;;4.25;74.01
76311;BME280;65120;59.304;18.294;2023-04-25T03:30:49;100032.19;;;4.26;74.25
76311;BME280;65120;59.304;18.294;2023-04-25T03:33:16;100031.31;;;4.25;73.92
76311;BME280;65120;59.304;18.294;2023-04-25T03:35:42;100031.31;;;4.25;74.10
76311;BME280;65120;59.304;18.294;2023-04-25T03:38:09;100038.19;;;4.26;74.40
76311;BME280;65120;59.304;18.294;2023-04-25T03:40:37;100013.22;;;4.25;74.54
76311;BME280;65120;59.304;18.294;2023-04-25T03:43:04;99997.72;;;4.27;74.49
76311;BME280;65120;59.304;18.294;2023-04-25T03:45:31;100011.50;;;4.27;74.50
76311;BME280;65120;59.304;18.294;2023-04-25T03:47:58;100000.28;;;4.30;74.78
76311;BME280;65120;59.304;18.294;2023-04-25T03:50:25;100002.84;;;4.32;74.12
76311;BME280;65120;59.304;18.294;2023-04-25T03:52:52;100014.06;;;4.34;74.93
76311;BME280;65120;59.304;18.294;2023-04-25T03:55:19;99996.81;;;4.36;74.72
76311;BME280;65120;59.304;18.294;2023-04-25T03:57:47;99989.03;;;4.37;74.43
76311;BME280;65120;59.304;18.294;2023-04-25T04:00:14;99984.72;;;4.38;74.24
76311;BME280;65120;59.304;18.294;2023-04-25T04:02:41;99968.34;;;4.39;74.29
76311;BME280;65120;59.304;18.294;2023-04-25T04:05:09;99978.63;;;4.43;74.27
76311;BME280;65120;59.304;18.294;2023-04-25T04:07:35;99963.13;;;4.45;74.35
76311;BME280;65120;59.304;18.294;2023-04-25T04:10:06;99967.44;;;4.43;74.44
76311;BME280;65120;59.304;18.294;2023-04-25T04:12:32;99973.44;;;4.46;74.61
76311;BME280;65120;59.304;18.294;2023-04-25T04:15:01;99970.88;;;4.48;74.56
76311;BME280;65120;59.304;18.294;2023-04-25T04:17:29;99961.38;;;4.48;74.30
76311;BME280;65120;59.304;18.294;2023-04-25T04:19:56;99954.47;;;4.50;74.37
76311;BME280;65120;59.304;18.294;2023-04-25T04:22:23;99965.69;;;4.53;74.40
76311;BME280;65120;59.304;18.294;2023-04-25T04:24:50;99976.00;;;4.54;74.22
76311;BME280;65120;59.304;18.294;2023-04-25T04:27:17;99977.69;;;4.55;74.49
76311;BME280;65120;59.304;18.294;2023-04-25T04:29:45;99984.59;;;4.59;74.15
76311;BME280;65120;59.304;18.294;2023-04-25T04:32:14;99991.47;;;4.60;74.39
76311;BME280;65120;59.304;18.294;2023-04-25T04:34:42;99986.28;;;4.60;74.45
76311;BME280;65120;59.304;18.294;2023-04-25T04:37:10;99989.75;;;4.62;74.00
76311;BME280;65120;59.304;18.294;2023-04-25T04:39:38;99994.03;;;4.63;74.25
76311;BME280;65120;59.304;18.294;2023-04-25T04:42:05;99997.47;;;4.65;74.43
76311;BME280;65120;59.304;18.294;2023-04-25T04:44:33;99986.28;;;4.63;74.51
76311;BME280;65120;59.304;18.294;2023-04-25T04:47:00;99994.88;;;4.67;74.51
76311;BME280;65120;59.304;18.294;2023-04-25T04:49:30;99995.78;;;4.64;74.18
76311;BME280;65120;59.304;18.294;2023-04-25T04:51:57;99993.16;;;4.67;74.22
76311;BME280;65120;59.304;18.294;2023-04-25T04:54:25;99994.88;;;4.68;74.31
76311;BME280;65120;59.304;18.294;2023-04-25T04:56:52;99995.72;;;4.70;74.61
76311;BME280;65120;59.304;18.294;2023-04-25T04:59:19;99996.56;;;4.72;74.73
76311;BME280;65120;59.304;18.294;2023-04-25T05:01:46;99981.88;;;4.76;74.64
76311;BME280;65120;59.304;18.294;2023-04-25T05:04:13;99970.66;;;4.77;74.32
76311;BME280;65120;59.304;18.294;2023-04-25T05:06:41;99977.53;;;4.81;74.54
76311;BME280;65120;59.304;18.294;2023-04-25T05:09:09;99961.13;;;4.82;74.34
76311;BME280;65120;59.304;18.294;2023-04-25T05:11:36;99974.03;;;4.85;74.53
76311;BME280;65120;59.304;18.294;2023-04-25T05:14:03;99969.72;;;4.86;74.53
76311;BME280;65120;59.304;18.294;2023-04-25T05:16:30;99969.69;;;4.89;74.41
76311;BME280;65120;59.304;18.294;2023-04-25T05:18:56;99975.72;;;4.91;74.38
76311;BME280;65120;59.304;18.294;2023-04-25T05:21:23;99980.91;;;4.92;74.43
76311;BME280;65120;59.304;18.294;2023-04-25T05:23:52;99972.25;;;4.92;74.38
76311;BME280;65120;59.304;18.294;2023-04-25T05:26:18;99979.13;;;4.96;74.31
76311;BME280;65120;59.304;18.294;2023-04-25T05:28:46;99971.34;;;4.97;74.48
76311;BME280;65120;59.304;18.294;2023-04-25T05:31:13;99968.75;;;4.99;74.82
76311;BME280;65120;59.304;18.294;2023-04-25T05:33:39;99967.88;;;5.02;74.52
76311;BME280;65120;59.304;18.294;2023-04-25T05:36:07;99959.22;;;5.03;74.40
76311;BME280;65120;59.304;18.294;2023-04-25T05:38:34;99962.66;;;5.03;74.28
76311;BME280;65120;59.304;18.294;2023-04-25T05:41:02;99948.88;;;5.04;74.46
76311;BME280;65120;59.304;18.294;2023-04-25T05:43:29;99949.69;;;5.06;74.45
76311;BME280;65120;59.304;18.294;2023-04-25T05:45:56;99944.47;;;5.09;74.46
76311;BME280;65120;59.304;18.294;2023-04-25T05:48:23;99936.72;;;5.12;74.42
76311;BME280;65120;59.304;18.294;2023-04-25T05:50:50;99937.53;;;5.14;74.44
76311;BME280;65120;59.304;18.294;2023-04-25T05:53:17;99941.88;;;5.15;74.36
76311;BME280;65120;59.304;18.294;2023-04-25T05:55:44;99947.00;;;5.18;74.14
76311;BME280;65120;59.304;18.294;2023-04-25T05:58:12;99946.13;;;5.19;74.06
76311;BME280;65120;59.304;18.294;2023-04-25T06:00:39;99940.94;;;5.19;74.16
76311;BME280;65120;59.304;18.294;2023-04-25T06:03:07;99946.09;;;5.23;74.23
76311;BME280;65120;59.304;18.294;2023-04-25T06:05:35;99948.69;;;5.23;74.38
76311;BME280;65120;59.304;18.294;2023-04-25T06:08:01;99952.13;;;5.23;74.41
76311;BME280;65120;59.304;18.294;2023-04-25T06:10:28;99957.31;;;5.25;74.17
76311;BME280;65120;59.304;18.294;2023-04-25T06:12:55;99957.28;;;5.26;74.26
76311;BME280;65120;59.304;18.294;2023-04-25T06:15:23;99951.25;;;5.26;74.33
76311;BME280;65120;59.304;18.294;2023-04-25T06:17:50;99952.09;;;5.26;74.35
76311;BME280;65120;59.304;18.294;2023-04-25T06:20:17;99954.69;;;5.28;74.20
76311;BME280;65120;59.304;18.294;2023-04-25T06:22:48;99952.94;;;5.28;73.94
76311;BME280;65120;59.304;18.294;2023-04-25T06:25:15;99949.50;;;5.28;74.06
76311;BME280;65120;59.304;18.294;2023-04-25T06:27:42;99960.72;;;5.30;74.57
76311;BME280;65120;59.304;18.294;2023-04-25T06:30:10;99954.66;;;5.31;74.54
76311;BME280;65120;59.304;18.294;2023-04-25T06:32:38;99946.88;;;5.31;74.43
76311;BME280;65120;59.304;18.294;2023-04-25T06:35:06;99958.09;;;5.33;74.40
76311;BME280;65120;59.304;18.294;2023-04-25T06:37:33;99951.13;;;5.35;74.36
76311;BME280;65120;59.304;18.294;2023-04-25T06:40:00;99958.91;;;5.38;73.86
76311;BME280;65120;59.304;18.294;2023-04-25T06:42:27;99957.13;;;5.40;74.38
76311;BME280;65120;59.304;18.294;2023-04-25T06:44:54;99962.28;;;5.43;74.52
76311;BME280;65120;59.304;18.294;2023-04-25T06:47:21;99954.50;;;5.43;74.61
76311;BME280;65120;59.304;18.294;2023-04-25T06:49:49;99961.38;;;5.47;74.70
76311;BME280;65120;59.304;18.294;2023-04-25T06:52:16;99948.41;;;5.50;74.67
76311;BME280;65120;59.304;18.294;2023-04-25T06:54:43;99945.78;;;5.53;74.62
76311;BME280;65120;59.304;18.294;2023-04-25T06:57:10;99939.72;;;5.56;74.66
76311;BME280;65120;59.304;18.294;2023-04-25T06:59:37;99946.59;;;5.57;74.68
76311;BME280;65120;59.304;18.294;2023-04-25T07:02:04;99943.16;;;5.58;74.54
76311;BME280;65120;59.304;18.294;2023-04-25T07:04:31;99937.03;;;5.62;74.71
76311;BME280;65120;59.304;18.294;2023-04-25T07:06:59;99949.94;;;5.67;74.73
76311;BME280;65120;59.304;18.294;2023-04-25T07:09:28;99943.88;;;5.68;74.70
76311;BME280;65120;59.304;18.294;2023-04-25T07:11:55;99956.81;;;5.69;74.60
76311;BME280;65120;59.304;18.294;2023-04-25T07:14:22;99955.91;;;5.72;74.72
76311;BME280;65120;59.304;18.294;2023-04-25T07:16:49;99960.19;;;5.76;74.72
76311;BME280;65120;59.304;18.294;2023-04-25T07:19:16;99957.56;;;5.79;74.61
76311;BME280;65120;59.304;18.294;2023-04-25T07:21:42;99959.25;;;5.83;74.49
76311;BME280;65120;59.304;18.294;2023-04-25T07:24:11;99963.53;;;5.87;74.90
76311;BME280;65120;59.304;18.294;2023-04-25T07:26:37;99950.53;;;5.90;74.59
76311;BME280;65120;59.304;18.294;2023-04-25T07:29:04;99951.38;;;5.92;74.56
76311;BME280;65120;59.304;18.294;2023-04-25T07:31:31;99956.50;;;5.97;74.55
76311;BME280;65120;59.304;18.294;2023-04-25T07:33:58;99953.88;;;6.00;74.72
76311;BME280;65120;59.304;18.294;2023-04-25T07:36:25;99949.53;;;6.03;74.66
76311;BME280;65120;59.304;18.294;2023-04-25T07:38:53;99954.63;;;6.08;74.42
76311;BME280;65120;59.304;18.294;2023-04-25T07:41:21;99954.59;;;6.11;74.81
76311;BME280;65120;59.304;18.294;2023-04-25T07:43:48;99962.31;;;6.14;74.70
76311;BME280;65120;59.304;18.294;2023-04-25T07:46:15;99960.56;;;6.18;74.65
76311;BME280;65120;59.304;18.294;2023-04-25T07:48:41;99970.91;;;6.21;74.68
76311;BME280;65120;59.304;18.294;2023-04-25T07:51:08;99976.03;;;6.24;74.73
76311;BME280;65120;59.304;18.294;2023-04-25T07:53:35;99970.81;;;6.27;74.70
76311;BME280;65120;59.304;18.294;2023-04-25T07:56:03;99981.16;;;6.30;74.81
76311;BME280;65120;59.304;18.294;2023-04-25T07:58:31;99980.22;;;6.34;74.95
76311;BME280;65120;59.304;18.294;2023-04-25T08:00:58;99987.09;;;6.38;74.94
76311;BME280;65120;59.304;18.294;2023-04-25T08:03:25;99979.22;;;6.43;75.07
76311;BME280;65120;59.304;18.294;2023-04-25T08:05:51;99969.69;;;6.45;75.09
76311;BME280;65120;59.304;18.294;2023-04-25T08:08:18;99973.09;;;6.48;75.19
76311;BME280;65120;59.304;18.294;2023-04-25T08:10:45;99986.00;;;6.53;75.16
76311;BME280;65120;59.304;18.294;2023-04-25T08:13:13;99991.13;;;6.58;75.13
76311;BME280;65120;59.304;18.294;2023-04-25T08:15:41;99996.28;;;6.61;75.18
76311;BME280;65120;59.304;18.294;2023-04-25T08:18:08;99984.97;;;6.65;75.19
76311;BME280;65120;59.304;18.294;2023-04-25T08:20:35;99983.16;;;6.68;74.96
76311;BME280;65120;59.304;18.294;2023-04-25T08:23:02;99986.56;;;6.73;75.09
76311;BME280;65120;59.304;18.294;2023-04-25T08:25:29;99987.34;;;6.77;74.91
76311;BME280;65120;59.304;18.294;2023-04-25T08:27:56;99991.63;;;6.81;74.92
76311;BME280;65120;59.304;18.294;2023-04-25T08:30:24;99991.59;;;6.84;75.07
76311;BME280;65120;59.304;18.294;2023-04-25T08:32:53;99996.72;;;6.87;74.80
76311;BME280;65120;59.304;18.294;2023-04-25T08:35:20;99995.78;;;6.91;74.93
76311;BME280;65120;59.304;18.294;2023-04-25T08:37:47;99997.47;;;6.94;75.13
76311;BME280;65120;59.304;18.294;2023-04-25T08:40:15;99998.28;;;6.99;74.69
76311;BME280;65120;59.304;18.294;2023-04-25T08:42:42;99999.97;;;7.02;74.78
76311;BME280;65120;59.304;18.294;2023-04-25T08:45:10;99996.47;;;7.04;74.79
76311;BME280;65120;59.304;18.294;2023-04-25T08:47:38;99997.25;;;7.09;74.72
76311;BME280;65120;59.304;18.294;2023-04-25T08:50:08;100006.69;;;7.13;74.78
76311;BME280;65120;59.304;18.294;2023-04-25T08:52:38;100005.78;;;7.16;74.80
76311;BME280;65120;59.304;18.294;2023-04-25T08:55:07;100011.78;;;7.19;74.95
76311;BME280;65120;59.304;18.294;2023-04-25T08:57:36;100005.69;;;7.22;74.59
76311;BME280;65120;59.304;18.294;2023-04-25T09:00:04;100002.16;;;7.26;75.02
76311;BME280;65120;59.304;18.294;2023-04-25T09:02:33;100011.59;;;7.30;74.92
76311;BME280;65120;59.304;18.294;2023-04-25T09:05:02;100013.28;;;7.33;74.95
76311;BME280;65120;59.304;18.294;2023-04-25T09:07:31;100020.13;;;7.37;74.95
76311;BME280;65120;59.304;18.294;2023-04-25T09:09:58;100005.38;;;7.40;75.00
76311;BME280;65120;59.304;18.294;2023-04-25T09:12:28;100010.50;;;7.43;74.74
76311;BME280;65120;59.304;18.294;2023-04-25T09:15:03;100015.59;;;7.48;74.89
76311;BME280;65120;59.304;18.294;2023-04-25T09:17:30;100015.56;;;7.51;74.85
76311;BME280;65120;59.304;18.294;2023-04-25T09:20:06;100015.47;;;7.56;74.85
76311;BME280;65120;59.304;18.294;2023-04-25T09:22:35;100021.47;;;7.59;75.27
76311;BME280;65120;59.304;18.294;2023-04-25T09:25:03;100030.91;;;7.65;75.22
76311;BME280;65120;59.304;18.294;2023-04-25T09:27:32;100031.72;;;7.67;74.90
76311;BME280;65120;59.304;18.294;2023-04-25T09:29:59;100038.56;;;7.73;75.17
76311;BME280;65120;59.304;18.294;2023-04-25T09:32:26;100042.78;;;7.78;75.01
76311;BME280;65120;59.304;18.294;2023-04-25T09:34:54;100037.47;;;7.84;74.84
76311;BME280;65120;59.304;18.294;2023-04-25T09:37:23;100037.41;;;7.87;75.06
76311;BME280;65120;59.304;18.294;2023-04-25T09:39:53;100047.69;;;7.94;74.90
76311;BME280;65120;59.304;18.294;2023-04-25T09:42:22;100036.34;;;7.98;74.90
76311;BME280;65120;59.304;18.294;2023-04-25T09:44:52;100039.69;;;8.04;74.64
76311;BME280;65120;59.304;18.294;2023-04-25T09:47:19;100046.50;;;8.10;74.86
76311;BME280;65120;59.304;18.294;2023-04-25T09:49:49;100045.53;;;8.16;74.52
76311;BME280;65120;59.304;18.294;2023-04-25T09:52:17;100044.53;;;8.21;74.60
76311;BME280;65120;59.304;18.294;2023-04-25T09:54:45;100042.72;;;8.25;74.65
76311;BME280;65120;59.304;18.294;2023-04-25T09:57:14;100052.13;;;8.32;74.46
76311;BME280;65120;59.304;18.294;2023-04-25T09:59:46;100056.34;;;8.38;74.73
76311;BME280;65120;59.304;18.294;2023-04-25T10:02:14;100062.38;;;8.41;74.46
76311;BME280;65120;59.304;18.294;2023-04-25T10:04:41;100059.69;;;8.46;74.80
76311;BME280;65120;59.304;18.294;2023-04-25T10:07:08;100051.78;;;8.50;74.13
76311;BME280;65120;59.304;18.294;2023-04-25T10:09:37;100053.44;;;8.54;74.37
76311;BME280;65120;59.304;18.294;2023-04-25T10:12:07;100054.19;;;8.60;74.34
76311;BME280;65120;59.304;18.294;2023-04-25T10:14:35;100056.69;;;8.64;74.37
76311;BME280;65120;59.304;18.294;2023-04-25T10:17:02;100055.75;;;8.68;74.36
76311;BME280;65120;59.304;18.294;2023-04-25T10:19:31;100059.13;;;8.72;74.11
76311;BME280;65120;59.304;18.294;2023-04-25T10:22:04;100065.94;;;8.77;74.22
76311;BME280;65120;59.304;18.294;2023-04-25T10:24:32;100063.25;;;8.81;73.97
76311;BME280;65120;59.304;18.294;2023-04-25T10:27:00;100070.09;;;8.85;73.88
76311;BME280;65120;59.304;18.294;2023-04-25T10:29:27;100070.03;;;8.88;73.89
76311;BME280;65120;59.304;18.294;2023-04-25T10:31:56;100072.53;;;8.92;74.35
76311;BME280;65120;59.304;18.294;2023-04-25T10:34:24;100073.31;;;8.97;73.84
76311;BME280;65120;59.304;18.294;2023-04-25T10:36:52;100074.97;;;9.00;73.97
76311;BME280;65120;59.304;18.294;2023-04-25T10:39:23;100073.13;;;9.05;73.58
76311;BME280;65120;59.304;18.294;2023-04-25T10:41:56;100082.56;;;9.09;73.28
76311;BME280;65120;59.304;18.294;2023-04-25T10:44:26;100079.91;;;9.12;73.47
76311;BME280;65120;59.304;18.294;2023-04-25T10:46:56;100079.91;;;9.12;73.46
76311;BME280;65120;59.304;18.294;2023-04-25T10:49:32;100084.09;;;9.19;73.63
76311;BME280;65120;59.304;18.294;2023-04-25T10:52:15;100086.63;;;9.22;73.20
76311;BME280;65120;59.304;18.294;2023-04-25T10:54:43;100084.78;;;9.26;73.55
76311;BME280;65120;59.304;18.294;2023-04-25T10:57:40;100090.69;;;9.33;73.18
76311;BME280;65120;59.304;18.294;2023-04-25T11:00:12;100084.56;;;9.35;73.17
76311;BME280;65120;59.304;18.294;2023-04-25T11:02:46;100086.22;;;9.38;73.09
76311;BME280;65120;59.304;18.294;2023-04-25T11:05:20;100081.84;;;9.40;72.51
76311;BME280;65120;59.304;18.294;2023-04-25T11:07:52;100083.53;;;9.42;73.03
76311;BME280;65120;59.304;18.294;2023-04-25T11:10:25;100084.28;;;9.46;72.62
76311;BME280;65120;59.304;18.294;2023-04-25T11:12:52;100076.47;;;9.46;72.41
76311;BME280;65120;59.304;18.294;2023-04-25T11:15:19;100079.03;;;9.48;72.51
76311;BME280;65120;59.304;18.294;2023-04-25T11:17:48;100084.19;;;9.51;72.63
76311;BME280;65120;59.304;18.294;2023-04-25T11:20:15;100089.34;;;9.52;72.07
76311;BME280;65120;59.304;18.294;2023-04-25T11:22:44;100089.44;;;9.49;71.95
76311;BME280;65120;59.304;18.294;2023-04-25T11:25:12;100091.94;;;9.54;71.97
76311;BME280;65120;59.304;18.294;2023-04-25T11:27:49;100098.81;;;9.56;71.96
76311;BME280;65120;59.304;18.294;2023-04-25T11:30:17;100095.34;;;9.56;71.46
76311;BME280;65120;59.304;18.294;2023-04-25T11:32:44;100095.31;;;9.57;71.99
76311;BME280;65120;59.304;18.294;2023-04-25T11:35:13;100096.94;;;9.61;71.49
76311;BME280;65120;59.304;18.294;2023-04-25T11:37:40;100092.53;;;9.63;71.85
76311;BME280;65120;59.304;18.294;2023-04-25T11:40:08;100103.72;;;9.68;71.98
76311;BME280;65120;59.304;18.294;2023-04-25T11:42:37;100092.38;;;9.69;72.29
76311;BME280;65120;59.304;18.294;2023-04-25T11:45:06;100086.28;;;9.71;72.10
76311;BME280;65120;59.304;18.294;2023-04-25T11:47:33;100094.81;;;9.76;72.12
76311;BME280;65120;59.304;18.294;2023-04-25T11:50:01;100095.66;;;9.78;71.86
76311;BME280;65120;59.304;18.294;2023-04-25T11:52:40;100093.03;;;9.78;71.96
76311;BME280;65120;59.304;18.294;2023-04-25T11:55:08;100087.00;;;9.76;71.82
76311;BME280;65120;59.304;18.294;2023-04-25T11:57:37;100093.88;;;9.80;71.88
76311;BME280;65120;59.304;18.294;2023-04-25T12:00:07;100094.72;;;9.80;71.82
76311;BME280;65120;59.304;18.294;2023-04-25T12:02:36;100087.72;;;9.82;71.99
76311;BME280;65120;59.304;18.294;2023-04-25T12:05:06;100085.06;;;9.84;71.91
76311;BME280;65120;59.304;18.294;2023-04-25T12:07:33;100095.47;;;9.85;71.92
76311;BME280;65120;59.304;18.294;2023-04-25T12:10:06;100097.06;;;9.89;71.95
76311;BME280;65120;59.304;18.294;2023-04-25T12:12:34;100097.91;;;9.91;71.87
76311;BME280;65120;59.304;18.294;2023-04-25T12:15:12;100094.38;;;9.94;72.00
76311;BME280;65120;59.304;18.294;2023-04-25T12:17:41;100090.00;;;9.95;71.53
76311;BME280;65120;59.304;18.294;2023-04-25T12:20:10;100092.50;;;9.99;71.82
76311;BME280;65120;59.304;18.294;2023-04-25T12:22:37;100088.97;;;10.00;71.64
76311;BME280;65120;59.304;18.294;2023-04-25T12:25:06;100087.97;;;10.04;72.03
76311;BME280;65120;59.304;18.294;2023-04-25T12:27:33;100094.00;;;10.08;71.56
76311;BME280;65120;59.304;18.294;2023-04-25T12:30:01;100086.97;;;10.10;71.89
76311;BME280;65120;59.304;18.294;2023-04-25T12:32:28;100096.38;;;10.16;72.50
76311;BME280;65120;59.304;18.294;2023-04-25T12:34:56;100103.22;;;10.20;72.41
76311;BME280;65120;59.304;18.294;2023-04-25T12:37:22;100107.47;;;10.24;71.76
76311;BME280;65120;59.304;18.294;2023-04-25T12:39:49;100115.22;;;10.27;71.94
76311;BME280;65120;59.304;18.294;2023-04-25T12:42:18;100111.69;;;10.29;71.68
76311;BME280;65120;59.304;18.294;2023-04-25T12:44:45;100103.81;;;10.31;71.61
76311;BME280;65120;59.304;18.294;2023-04-25T12:47:12;100102.81;;;10.35;71.52
76311;BME280;65120;59.304;18.294;2023-04-25T12:49:40;100098.44;;;10.37;71.43
76311;BME280;65120;59.304;18.294;2023-04-25T12:52:07;100102.72;;;10.40;71.95
76311;BME280;65120;59.304;18.294;2023-04-25T12:54:34;100101.72;;;10.44;71.52
76311;BME280;65120;59.304;18.294;2023-04-25T12:57:01;100095.50;;;10.48;71.10